createdAt,value
2023-01-17T00:02:19.469Z,94512.13
2023-01-17T00:05:07.326Z,94513.44
2023-01-17T00:07:52.585Z,94509.59
2023-01-17T00:10:21.908Z,94506.41
2023-01-17T00:12:54.062Z,94511.66
2023-01-17T00:15:23.342Z,94516.59
2023-01-17T00:17:53.451Z,94511.25
2023-01-17T00:20:41.591Z,94515.09
2023-01-17T00:23:36.979Z,94510.72
2023-01-17T00:26:25.020Z,94498.44
2023-01-17T00:28:53.807Z,94507.22
2023-01-17T00:31:22.852Z,94504.13
2023-01-17T00:33:49.380Z,94513.31
2023-01-17T00:36:15.857Z,94510.31
2023-01-17T00:38:42.403Z,94511.06
2023-01-17T00:41:11.599Z,94512.13
2023-01-17T00:43:57.131Z,94513.72
2023-01-17T00:46:45.082Z,94506.78
2023-01-17T00:49:32.615Z,94502.28
2023-01-17T00:52:18.039Z,94502.19
2023-01-17T00:55:05.735Z,94500.28
2023-01-17T00:57:50.617Z,94497.59
2023-01-17T01:00:38.939Z,94504.13
2023-01-17T01:03:28.798Z,94506.53
2023-01-17T01:06:13.892Z,94507.63
2023-01-17T01:08:58.615Z,94492.00
2023-01-17T01:11:43.838Z,94495.84
2023-01-17T01:14:29.216Z,94493.16
2023-01-17T01:17:13.962Z,94490.50
2023-01-17T01:20:01.216Z,94487.47
2023-01-17T01:22:48.612Z,94492.75
2023-01-17T01:25:34.024Z,94491.09
2023-01-17T01:28:26.038Z,94497.59
2023-01-17T01:31:13.340Z,94495.47
2023-01-17T01:33:39.946Z,94487.78
2023-01-17T01:36:08.886Z,94493.69
2023-01-17T01:38:35.631Z,94498.28
2023-01-17T01:41:02.726Z,94502.81
2023-01-17T01:43:44.452Z,94500.91
2023-01-17T01:46:31.233Z,94498.38
2023-01-17T01:49:04.761Z,94491.13
2023-01-17T01:51:48.186Z,94489.97
2023-01-17T01:54:20.724Z,94484.44
2023-01-17T01:56:48.961Z,94489.53
2023-01-17T01:59:22.365Z,94491.78
2023-01-17T02:01:55.883Z,94480.34
2023-01-17T02:04:27.896Z,94473.84
2023-01-17T02:07:02.668Z,94476.13
2023-01-17T02:09:29.235Z,94462.53
2023-01-17T02:12:01.275Z,94463.59
2023-01-17T02:14:30.271Z,94468.91
2023-01-17T02:17:12.730Z,94471.03
2023-01-17T02:20:11.590Z,94471.44
2023-01-17T02:23:05.490Z,94471.06
2023-01-17T02:25:59.619Z,94463.50
2023-01-17T02:28:46.467Z,94469.09
2023-01-17T02:31:25.695Z,94468.50
2023-01-17T02:34:06.730Z,94454.81
2023-01-17T02:36:37.990Z,94455.81
2023-01-17T02:39:22.117Z,94455.38
2023-01-17T02:42:00.991Z,94448.31
2023-01-17T02:44:27.507Z,94441.69
2023-01-17T02:46:56.703Z,94430.38
2023-01-17T02:49:30.376Z,94427.28
2023-01-17T02:52:37.010Z,94426.78
2023-01-17T02:55:05.876Z,94417.28
2023-01-17T02:57:52.236Z,94406.53
2023-01-17T03:00:23.774Z,94409.28
2023-01-17T03:02:53.342Z,94406.69
2023-01-17T03:05:43.543Z,94405.94
2023-01-17T03:08:13.387Z,94413.81
2023-01-17T03:10:43.811Z,94423.97
2023-01-17T03:13:10.459Z,94416.63
2023-01-17T03:15:42.381Z,94415.97
2023-01-17T03:18:14.111Z,94416.47
2023-01-17T03:20:43.840Z,94411.22
2023-01-17T03:23:13.623Z,94407.94
2023-01-17T03:25:40.161Z,94402.25
2023-01-17T03:28:06.751Z,94412.63
2023-01-17T03:30:33.355Z,94400.69
2023-01-17T03:33:02.169Z,94396.44
2023-01-17T03:35:28.738Z,94395.09
2023-01-17T03:37:56.512Z,94396.06
2023-01-17T03:40:28.069Z,94399.41
2023-01-17T03:42:54.597Z,94400.66
2023-01-17T03:45:23.389Z,94400.66
2023-01-17T03:47:49.904Z,94389.97
2023-01-17T03:50:16.540Z,94396.16
2023-01-17T03:52:43.109Z,94401.16
2023-01-17T03:55:10.048Z,94391.25
2023-01-17T03:57:36.632Z,94393.00
2023-01-17T04:00:03.938Z,94388.81
2023-01-17T04:02:30.525Z,94384.34
2023-01-17T04:04:59.600Z,94370.31
2023-01-17T04:07:28.452Z,94367.31
2023-01-17T04:09:57.101Z,94364.47
2023-01-17T04:12:26.182Z,94358.13
2023-01-17T04:14:54.990Z,94348.53
2023-01-17T04:17:22.709Z,94342.69
2023-01-17T04:19:49.348Z,94355.25
2023-01-17T04:22:15.908Z,94340.19
2023-01-17T04:24:44.683Z,94330.97
2023-01-17T04:27:16.150Z,94332.94
2023-01-17T04:29:47.637Z,94316.53
2023-01-17T04:32:14.876Z,94317.06
2023-01-17T04:34:43.650Z,94314.00
2023-01-17T04:37:10.355Z,94307.56
2023-01-17T04:39:36.914Z,94302.31
2023-01-17T04:42:03.563Z,94307.63
2023-01-17T04:44:30.134Z,94298.38
2023-01-17T04:46:56.702Z,94294.53
2023-01-17T04:49:23.327Z,94293.38
2023-01-17T04:51:49.900Z,94290.38
2023-01-17T04:54:16.592Z,94303.63
2023-01-17T04:56:44.246Z,94293.81
2023-01-17T04:59:10.875Z,94295.91
2023-01-17T05:01:37.676Z,94287.41
2023-01-17T05:04:04.505Z,94290.66
2023-01-17T05:06:33.280Z,94288.31
2023-01-17T05:08:59.883Z,94278.25
2023-01-17T05:11:26.435Z,94280.19
2023-01-17T05:13:57.812Z,94263.66
2023-01-17T05:16:24.606Z,94268.41
2023-01-17T05:18:54.029Z,94274.81
2023-01-17T05:21:24.078Z,94279.91
2023-01-17T05:23:52.834Z,94273.91
2023-01-17T05:26:21.749Z,94270.44
2023-01-17T05:28:48.329Z,94276.25
2023-01-17T05:31:14.916Z,94282.75
2023-01-17T05:33:44.017Z,94290.63
2023-01-17T05:36:13.045Z,94278.19
2023-01-17T05:38:39.779Z,94282.22
2023-01-17T05:41:08.784Z,94274.06
2023-01-17T05:43:38.553Z,94269.84
2023-01-17T05:46:05.289Z,94262.94
2023-01-17T05:48:36.614Z,94261.09
2023-01-17T05:51:05.528Z,94250.22
2023-01-17T05:53:32.345Z,94251.78
2023-01-17T05:56:01.128Z,94239.00
2023-01-17T05:58:29.985Z,94231.84
2023-01-17T06:00:59.057Z,94234.34
2023-01-17T06:03:28.294Z,94237.69
2023-01-17T06:05:54.914Z,94244.75
2023-01-17T06:08:23.695Z,94240.13
2023-01-17T06:10:52.767Z,94243.00
2023-01-17T06:13:22.093Z,94237.69
2023-01-17T06:15:49.122Z,94234.34
2023-01-17T06:18:17.748Z,94236.22
2023-01-17T06:20:45.214Z,94231.66
2023-01-17T06:23:14.323Z,94229.19
2023-01-17T06:25:46.190Z,94226.59
2023-01-17T06:28:17.081Z,94219.72
2023-01-17T06:30:44.075Z,94210.91
2023-01-17T06:33:13.619Z,94202.00
2023-01-17T06:35:46.888Z,94191.63
2023-01-17T06:38:13.646Z,94179.28
2023-01-17T06:40:42.426Z,94183.88
2023-01-17T06:43:09.056Z,94179.06
2023-01-17T06:45:38.130Z,94183.00
2023-01-17T06:48:05.872Z,94190.06
2023-01-17T06:50:35.285Z,94196.16
2023-01-17T06:53:06.753Z,94196.91
2023-01-17T06:55:34.818Z,94203.84
2023-01-17T06:58:02.891Z,94198.00
2023-01-17T07:00:35.172Z,94190.53
2023-01-17T07:03:02.109Z,94199.25
2023-01-17T07:05:32.876Z,94198.56
2023-01-17T07:07:59.538Z,94195.91
2023-01-17T07:10:28.615Z,94200.25
2023-01-17T07:12:59.765Z,94194.75
2023-01-17T07:15:31.155Z,94183.63
2023-01-17T07:18:01.207Z,94182.38
2023-01-17T07:20:27.865Z,94173.56
2023-01-17T07:22:54.455Z,94161.81
2023-01-17T07:25:23.372Z,94150.66
2023-01-17T07:27:53.577Z,94149.09
2023-01-17T07:30:22.674Z,94160.06
2023-01-17T07:32:55.250Z,94175.28
2023-01-17T07:35:23.196Z,94190.66
2023-01-17T07:37:50.718Z,94188.44
2023-01-17T07:40:21.265Z,94191.03
2023-01-17T07:42:48.365Z,94183.19
2023-01-17T07:45:16.328Z,94188.88
2023-01-17T07:47:42.893Z,94184.47
2023-01-17T07:50:10.219Z,94186.38
2023-01-17T07:52:36.744Z,94178.22
2023-01-17T07:55:03.509Z,94160.06
2023-01-17T07:57:34.589Z,94146.25
2023-01-17T08:00:01.229Z,94137.03
2023-01-17T08:02:27.797Z,94126.03
2023-01-17T08:04:54.329Z,94120.94
2023-01-17T08:07:23.311Z,94117.34
2023-01-17T08:09:50.464Z,94115.63
2023-01-17T08:12:17.600Z,94110.59
2023-01-17T08:14:46.900Z,94098.06
2023-01-17T08:17:21.811Z,94094.88
2023-01-17T08:19:52.244Z,94089.97
2023-01-17T08:22:19.582Z,94094.38
2023-01-17T08:24:46.138Z,94092.19
2023-01-17T08:27:17.160Z,94087.03
2023-01-17T08:29:48.385Z,94091.53
2023-01-17T08:32:21.370Z,94085.16
2023-01-17T08:34:47.917Z,94076.13
2023-01-17T08:37:16.645Z,94069.06
2023-01-17T08:39:45.657Z,94071.97
2023-01-17T08:42:12.202Z,94071.97
2023-01-17T08:44:39.790Z,94060.09
2023-01-17T08:47:06.421Z,94051.56
2023-01-17T08:49:33.001Z,94043.13
2023-01-17T08:52:01.769Z,94042.19
2023-01-17T08:54:28.997Z,94025.25
2023-01-17T08:56:57.843Z,94025.94
2023-01-17T08:59:24.461Z,94029.13
2023-01-17T09:01:52.600Z,94032.19
2023-01-17T09:04:21.885Z,94020.38
2023-01-17T09:06:48.917Z,94015.94
2023-01-17T09:09:16.937Z,94015.59
2023-01-17T09:11:43.502Z,94017.88
2023-01-17T09:14:12.679Z,94025.22
2023-01-17T09:16:42.257Z,94031.31
2023-01-17T09:19:11.113Z,94019.25
2023-01-17T09:21:37.647Z,94020.75
2023-01-17T09:24:04.253Z,94026.53
2023-01-17T09:26:31.159Z,94031.13
2023-01-17T09:29:00.137Z,94032.81
2023-01-17T09:31:28.963Z,94033.59
2023-01-17T09:33:57.176Z,94036.56
2023-01-17T09:36:24.465Z,94025.38
2023-01-17T09:38:56.808Z,94017.78
2023-01-17T09:41:29.080Z,94020.56
2023-01-17T09:44:02.768Z,94023.66
2023-01-17T09:46:32.280Z,94015.53
2023-01-17T09:49:09.544Z,94013.28
2023-01-17T09:51:36.920Z,94013.47
2023-01-17T09:54:03.740Z,94025.03
2023-01-17T09:56:46.783Z,94024.72
2023-01-17T09:59:19.400Z,94016.94
2023-01-17T10:02:10.718Z,94024.81
2023-01-17T10:05:16.262Z,94013.81
2023-01-17T10:07:42.835Z,94025.88
2023-01-17T10:10:30.704Z,94016.56
2023-01-17T10:13:15.304Z,94004.16
2023-01-17T10:16:00.817Z,94001.63
2023-01-17T10:18:30.760Z,94000.69
2023-01-17T10:21:06.269Z,93992.44
2023-01-17T10:23:46.936Z,93989.34
2023-01-17T10:26:22.261Z,93990.97
2023-01-17T10:28:51.651Z,93978.91
2023-01-17T10:31:29.950Z,93975.06
2023-01-17T10:34:25.404Z,93966.28
2023-01-17T10:37:04.097Z,93961.56
2023-01-17T10:39:31.237Z,93957.09
2023-01-17T10:42:03.408Z,93956.28
2023-01-17T10:44:43.451Z,93956.66
2023-01-17T10:47:09.919Z,93950.13
2023-01-17T10:49:44.101Z,93947.53
2023-01-17T10:52:29.556Z,93941.13
2023-01-17T10:55:30.271Z,93941.56
2023-01-17T10:57:58.185Z,93941.47
2023-01-17T11:00:46.747Z,93942.94
2023-01-17T11:03:17.794Z,93944.44
2023-01-17T11:06:04.363Z,93942.28
2023-01-17T11:08:53.519Z,93940.13
2023-01-17T11:11:24.831Z,93953.44
2023-01-17T11:13:54.632Z,93945.81
2023-01-17T11:16:27.434Z,93934.59
2023-01-17T11:19:18.416Z,93933.84
2023-01-17T11:21:56.138Z,93932.78
2023-01-17T11:24:40.658Z,93917.81
2023-01-17T11:27:23.456Z,93919.41
2023-01-17T11:30:15.859Z,93925.97
2023-01-17T11:32:57.656Z,93918.56
2023-01-17T11:35:44.384Z,93912.09
2023-01-17T11:38:19.027Z,93914.66
2023-01-17T11:40:48.000Z,93908.69
2023-01-17T11:43:30.269Z,93909.69
2023-01-17T11:46:17.951Z,93898.06
2023-01-17T11:48:51.283Z,93892.72
2023-01-17T11:51:33.137Z,93877.66
2023-01-17T11:54:25.895Z,93871.72
2023-01-17T11:57:04.516Z,93857.53
2023-01-17T11:59:35.221Z,93847.03
2023-01-17T12:02:23.995Z,93844.97
2023-01-17T12:05:02.516Z,93840.44
2023-01-17T12:07:38.013Z,93825.78
2023-01-17T12:10:26.091Z,93819.22
2023-01-17T12:13:32.795Z,93808.03
2023-01-17T12:16:27.406Z,93798.44
2023-01-17T12:19:05.790Z,93806.00
2023-01-17T12:22:08.801Z,93802.25
2023-01-17T12:24:45.331Z,93807.84
2023-01-17T12:27:37.978Z,93799.69
2023-01-17T12:30:39.525Z,93792.97
2023-01-17T12:33:27.248Z,93783.88
2023-01-17T12:35:58.539Z,93767.25
2023-01-17T12:38:41.351Z,93769.66
2023-01-17T12:41:23.003Z,93770.25
2023-01-17T12:43:54.084Z,93768.03
2023-01-17T12:46:28.480Z,93765.50
2023-01-17T12:49:02.907Z,93766.25
2023-01-17T12:51:39.201Z,93760.34
2023-01-17T12:54:20.082Z,93752.00
2023-01-17T12:56:52.520Z,93749.16
2023-01-17T12:59:32.707Z,93746.97
2023-01-17T13:02:10.943Z,93769.50
2023-01-17T13:04:58.362Z,93775.72
2023-01-17T13:07:48.566Z,93780.00
2023-01-17T13:10:18.012Z,93780.75
2023-01-17T13:12:48.962Z,93786.75
2023-01-17T13:15:23.385Z,93778.63
2023-01-17T13:17:56.488Z,93779.31
2023-01-17T13:20:26.830Z,93779.34
2023-01-17T13:22:59.439Z,93778.47
2023-01-17T13:25:31.953Z,93784.28
2023-01-17T13:28:00.769Z,93782.25
2023-01-17T13:30:50.605Z,93780.66
2023-01-17T13:33:40.935Z,93788.59
2023-01-17T13:36:20.159Z,93791.75
2023-01-17T13:39:13.683Z,93804.16
2023-01-17T13:41:45.562Z,93806.16
2023-01-17T13:44:24.394Z,93813.06
2023-01-17T13:47:01.286Z,93822.88
2023-01-17T13:49:34.135Z,93825.13
2023-01-17T13:52:03.466Z,93820.56
2023-01-17T13:54:42.295Z,93818.47
2023-01-17T13:57:29.571Z,93823.94
2023-01-17T14:00:00.683Z,93825.06
2023-01-17T14:02:35.865Z,93828.66
2023-01-17T14:05:21.369Z,93834.13
2023-01-17T14:07:49.656Z,93833.28
2023-01-17T14:10:38.235Z,93828.47
2023-01-17T14:13:24.483Z,93807.78
2023-01-17T14:15:55.572Z,93809.28
2023-01-17T14:18:55.420Z,93816.81
2023-01-17T14:21:25.965Z,93804.28
2023-01-17T14:24:04.135Z,93815.72
2023-01-17T14:26:43.215Z,93817.88
2023-01-17T14:29:47.287Z,93818.91
2023-01-17T14:32:22.110Z,93817.22
2023-01-17T14:34:52.044Z,93819.53
2023-01-17T14:37:29.600Z,93812.34
2023-01-17T14:40:01.946Z,93812.69
2023-01-17T14:42:33.506Z,93817.00
2023-01-17T14:45:09.251Z,93821.63
2023-01-17T14:47:41.540Z,93827.94
2023-01-17T14:50:27.371Z,93824.28
2023-01-17T14:53:29.999Z,93829.38
2023-01-17T14:56:17.735Z,93827.97
2023-01-17T14:58:46.585Z,93829.53
2023-01-17T15:01:19.390Z,93838.91
2023-01-17T15:03:51.537Z,93852.66
2023-01-17T15:06:20.360Z,93852.06
2023-01-17T15:08:48.298Z,93851.66
2023-01-17T15:11:22.404Z,93847.47
2023-01-17T15:13:51.669Z,93849.63
2023-01-17T15:16:18.148Z,93854.97
2023-01-17T15:18:44.770Z,93854.72
2023-01-17T15:21:19.314Z,93850.47
2023-01-17T15:23:55.400Z,93850.66
2023-01-17T15:26:25.284Z,93853.91
2023-01-17T15:28:55.330Z,93857.72
2023-01-17T15:31:39.140Z,93859.38
2023-01-17T15:34:08.116Z,93858.88
2023-01-17T15:36:35.640Z,93855.97
2023-01-17T15:39:08.555Z,93849.16
2023-01-17T15:41:41.863Z,93849.66
2023-01-17T15:44:23.898Z,93855.53
2023-01-17T15:46:50.478Z,93863.47
2023-01-17T15:49:22.851Z,93856.22
2023-01-17T15:51:52.246Z,93857.16
2023-01-17T15:54:27.085Z,93857.97
2023-01-17T15:57:26.351Z,93870.25
2023-01-17T16:00:06.948Z,93876.66
2023-01-17T16:02:37.880Z,93877.75
2023-01-17T16:05:30.939Z,93876.81
2023-01-17T16:08:04.323Z,93874.56
2023-01-17T16:10:36.399Z,93868.06
2023-01-17T16:13:05.392Z,93865.94
2023-01-17T16:15:36.061Z,93874.25
2023-01-17T16:18:03.836Z,93877.75
2023-01-17T16:20:44.833Z,93876.16
2023-01-17T16:23:11.728Z,93890.91
2023-01-17T16:25:38.449Z,93881.63
2023-01-17T16:28:07.369Z,93879.72
2023-01-17T16:30:33.985Z,93887.16
2023-01-17T16:33:03.651Z,93896.53
2023-01-17T16:35:35.508Z,93890.25
2023-01-17T16:38:05.541Z,93893.53
2023-01-17T16:40:38.915Z,93899.50
2023-01-17T16:43:05.480Z,93892.81
2023-01-17T16:45:40.328Z,93898.25
2023-01-17T16:48:12.619Z,93901.56
2023-01-17T16:50:53.355Z,93903.72
2023-01-17T16:53:24.310Z,93894.09
2023-01-17T16:55:53.855Z,93902.75
2023-01-17T16:58:22.897Z,93904.66
2023-01-17T17:00:49.457Z,93914.91
2023-01-17T17:03:23.282Z,93909.25
2023-01-17T17:05:58.372Z,93917.91
2023-01-17T17:08:24.973Z,93921.94
2023-01-17T17:10:51.966Z,93925.13
2023-01-17T17:13:18.519Z,93926.63
2023-01-17T17:15:47.483Z,93932.59
2023-01-17T17:18:17.644Z,93934.09
2023-01-17T17:20:45.083Z,93930.81
2023-01-17T17:23:14.832Z,93943.19
2023-01-17T17:25:43.652Z,93937.72
2023-01-17T17:28:11.081Z,93931.09
2023-01-17T17:30:37.596Z,93943.59
2023-01-17T17:33:06.600Z,93947.31
2023-01-17T17:35:38.257Z,93937.94
2023-01-17T17:38:07.137Z,93933.44
2023-01-17T17:40:35.578Z,93952.56
2023-01-17T17:43:02.439Z,93955.88
2023-01-17T17:45:28.970Z,93957.38
2023-01-17T17:47:55.606Z,93962.50
2023-01-17T17:50:22.135Z,93956.94
2023-01-17T17:52:48.951Z,93951.38
2023-01-17T17:55:20.450Z,93961.41
2023-01-17T17:57:47.020Z,93961.22
2023-01-17T18:00:16.615Z,93949.38
2023-01-17T18:02:45.489Z,93956.63
2023-01-17T18:05:12.022Z,93951.59
2023-01-17T18:07:41.553Z,93944.78
2023-01-17T18:10:08.648Z,93945.81
2023-01-17T18:12:35.211Z,93958.88
2023-01-17T18:15:04.527Z,93962.56
2023-01-17T18:17:33.397Z,93958.72
2023-01-17T18:20:07.507Z,93964.81
2023-01-17T18:22:34.500Z,93968.78
2023-01-17T18:25:01.085Z,93965.38
2023-01-17T18:27:27.647Z,93972.63
2023-01-17T18:29:59.201Z,93975.19
2023-01-17T18:32:25.845Z,93974.44
2023-01-17T18:34:54.961Z,93982.34
2023-01-17T18:37:24.508Z,93989.69
2023-01-17T18:39:56.078Z,93986.16
2023-01-17T18:42:23.651Z,94002.50
2023-01-17T18:44:50.174Z,94005.50
2023-01-17T18:47:19.078Z,94001.53
2023-01-17T18:49:45.635Z,93997.16
2023-01-17T18:52:12.165Z,94001.75
2023-01-17T18:54:41.364Z,93993.00
2023-01-17T18:57:13.028Z,93996.09
2023-01-17T18:59:39.564Z,93985.09
2023-01-17T19:02:08.915Z,93985.53
2023-01-17T19:04:37.782Z,93994.59
2023-01-17T19:07:04.375Z,93988.63
2023-01-17T19:09:32.348Z,93988.75
2023-01-17T19:12:00.065Z,93985.44
2023-01-17T19:14:31.184Z,93991.97
2023-01-17T19:16:57.783Z,93984.69
2023-01-17T19:19:26.614Z,93986.06
2023-01-17T19:21:55.432Z,93993.47
2023-01-17T19:24:24.944Z,93991.66
2023-01-17T19:26:54.093Z,93994.84
2023-01-17T19:29:23.918Z,94002.41
2023-01-17T19:31:55.901Z,94007.31
2023-01-17T19:34:22.925Z,94016.94
2023-01-17T19:36:53.183Z,94015.75
2023-01-17T19:39:25.347Z,94015.22
2023-01-17T19:41:51.963Z,94023.22
2023-01-17T19:44:20.758Z,94032.72
2023-01-17T19:46:47.524Z,94010.53
2023-01-17T19:49:16.326Z,94027.28
2023-01-17T19:51:43.783Z,94032.53
2023-01-17T19:54:15.179Z,94032.53
2023-01-17T19:56:46.268Z,94031.34
2023-01-17T19:59:15.424Z,94033.25
2023-01-17T20:01:46.649Z,94034.22
2023-01-17T20:04:18.045Z,94045.22
2023-01-17T20:06:46.091Z,94038.38
2023-01-17T20:09:15.609Z,94036.44
2023-01-17T20:11:42.342Z,94039.13
2023-01-17T20:14:13.443Z,94029.94
2023-01-17T20:16:43.611Z,94037.34
2023-01-17T20:19:15.406Z,94031.66
2023-01-17T20:21:46.686Z,94037.63
2023-01-17T20:24:14.300Z,94037.31
2023-01-17T20:26:41.328Z,94033.16
2023-01-17T20:29:14.282Z,94031.34
2023-01-17T20:31:44.598Z,94022.78
2023-01-17T20:34:13.498Z,94016.84
2023-01-17T20:36:42.540Z,94002.00
2023-01-17T20:39:15.943Z,94016.94
2023-01-17T20:41:43.959Z,94012.88
2023-01-17T20:44:15.668Z,94004.31
2023-01-17T20:46:42.737Z,94018.31
2023-01-17T20:49:17.104Z,94007.44
2023-01-17T20:51:47.267Z,94017.59
2023-01-17T20:54:18.515Z,94023.13
2023-01-17T20:56:48.153Z,94019.38
2023-01-17T20:59:19.756Z,94018.94
2023-01-17T21:01:49.696Z,94033.78
2023-01-17T21:04:17.996Z,94028.03
2023-01-17T21:06:44.704Z,94035.16
2023-01-17T21:09:17.232Z,94039.22
2023-01-17T21:11:46.052Z,94045.84
2023-01-17T21:14:12.616Z,94038.59
2023-01-17T21:16:44.712Z,94043.72
2023-01-17T21:19:14.367Z,94045.13
2023-01-17T21:21:40.967Z,94040.09
2023-01-17T21:24:09.964Z,94048.31
2023-01-17T21:26:39.894Z,94042.13
2023-01-17T21:29:07.175Z,94046.72
2023-01-17T21:31:36.820Z,94038.19
2023-01-17T21:34:05.923Z,94036.03
2023-01-17T21:36:42.331Z,94034.31
2023-01-17T21:39:19.820Z,94035.81
2023-01-17T21:41:50.733Z,94034.22
2023-01-17T21:44:25.970Z,94033.91
2023-01-17T21:46:59.844Z,94025.47
2023-01-17T21:49:31.203Z,94034.56
2023-01-17T21:51:57.735Z,94029.97
2023-01-17T21:54:49.145Z,94042.44
2023-01-17T21:57:38.494Z,94041.47
2023-01-17T22:00:10.479Z,94041.28
2023-01-17T22:02:37.131Z,94048.22
2023-01-17T22:05:03.880Z,94053.75
2023-01-17T22:07:30.430Z,94061.25
2023-01-17T22:09:59.339Z,94056.53
2023-01-17T22:12:26.297Z,94061.56
2023-01-17T22:14:53.550Z,94060.81
2023-01-17T22:17:21.047Z,94056.34
2023-01-17T22:19:50.072Z,94060.19
2023-01-17T22:22:16.648Z,94057.16
2023-01-17T22:24:43.238Z,94055.88
2023-01-17T22:27:13.624Z,94051.09
2023-01-17T22:29:40.271Z,94049.81
2023-01-17T22:32:06.839Z,94053.47
2023-01-17T22:34:33.405Z,94047.88
2023-01-17T22:37:00.557Z,94061.88
2023-01-17T22:39:31.899Z,94067.41
2023-01-17T22:41:58.704Z,94070.50
2023-01-17T22:44:25.312Z,94080.00
2023-01-17T22:46:54.198Z,94063.38
2023-01-17T22:49:23.419Z,94059.31
2023-01-17T22:51:52.657Z,94067.84
2023-01-17T22:54:21.512Z,94054.41
2023-01-17T22:56:50.506Z,94067.44
2023-01-17T22:59:17.093Z,94074.47
2023-01-17T23:01:45.969Z,94071.25
2023-01-17T23:04:14.510Z,94081.94
2023-01-17T23:06:41.654Z,94074.38
2023-01-17T23:09:10.683Z,94076.31
2023-01-17T23:11:47.392Z,94077.59
2023-01-17T23:14:21.044Z,94086.66
2023-01-17T23:17:10.696Z,94092.19
2023-01-17T23:19:44.761Z,94089.00
2023-01-17T23:22:19.354Z,94088.47
2023-01-17T23:24:54.381Z,94087.63
2023-01-17T23:27:56.033Z,94076.63
2023-01-17T23:30:37.330Z,94090.38
2023-01-17T23:33:13.304Z,94090.81
2023-01-17T23:35:44.257Z,94075.44
2023-01-17T23:38:29.960Z,94083.56
2023-01-17T23:41:23.718Z,94077.03
2023-01-17T23:43:58.979Z,94081.84
2023-01-17T23:46:26.910Z,94089.66
2023-01-17T23:48:54.955Z,94075.75
2023-01-17T23:51:26.239Z,94082.81
2023-01-17T23:53:57.287Z,94085.13
2023-01-17T23:56:26.180Z,94096.66
2023-01-17T23:58:54.788Z,94100.19
